Time;durP1;ratioP1;P1;durP2;ratioP2;P2;SDS_P1;SDS_P2;PMS_P1;PMS_P2;Temp;Humidity;BMP_temperature;BMP_pressure;BME280_temperature;BME280_humidity;BME280_pressure;Samples;Min_cycle;Max_cycle;Signal;HPM_P1;HPM_P2
2023/03/21 00:00:57;;;;;;;1999.90;999.90;;;11.10;99.90;;;;;;5075345;28;20771;-67
2023/03/21 00:03:24;;;;;;;1999.90;999.90;;;11.10;99.90;;;;;;5074935;28;20481;-67
2023/03/21 00:05:52;;;;;;;1999.90;999.90;;;11.10;99.90;;;;;;5074955;28;20425;-67
2023/03/21 00:08:22;;;;;;;1999.90;999.90;;;11.10;99.90;;;;;;5075263;28;20423;-67
2023/03/21 00:10:58;;;;;;;1999.90;999.90;;;11.10;99.90;;;;;;5075315;28;20831;-67
2023/03/21 00:13:25;;;;;;;1999.90;999.90;;;11.10;99.90;;;;;;5074898;28;20448;-67
2023/03/21 00:15:53;;;;;;;1999.90;999.90;;;11.10;99.90;;;;;;5074856;28;20440;-67
2023/03/21 00:18:21;;;;;;;1999.90;999.90;;;11.10;99.90;;;;;;5074779;28;20413;-67
2023/03/21 00:21:01;;;;;;;1999.90;999.90;;;11.10;99.90;;;;;;5075076;28;20416;-67
2023/03/21 00:23:27;;;;;;;1999.90;999.90;;;11.10;99.90;;;;;;5074513;28;20550;-67
2023/03/21 00:25:53;;;;;;;1999.90;999.90;;;11.10;99.90;;;;;;5074764;28;20428;-67
2023/03/21 00:28:19;;;;;;;1999.90;999.90;;;11.20;99.90;;;;;;5074773;28;20822;-68
2023/03/21 00:30:45;;;;;;;1999.90;999.90;;;11.10;99.90;;;;;;5074716;28;20444;-67
2023/03/21 00:33:12;;;;;;;1999.90;999.90;;;11.10;99.90;;;;;;5074483;28;20394;-67
2023/03/21 00:35:42;;;;;;;1999.90;999.90;;;11.10;99.90;;;;;;5074458;28;20282;-67
2023/03/21 00:38:08;;;;;;;1999.90;999.90;;;11.10;99.90;;;;;;5074444;28;20426;-67
2023/03/21 00:40:34;;;;;;;1999.90;999.90;;;11.10;99.90;;;;;;5074474;28;20435;-67
2023/03/21 00:42:59;;;;;;;1999.90;999.90;;;11.10;99.90;;;;;;5074318;28;20484;-67
2023/03/21 00:45:25;;;;;;;1999.90;999.90;;;11.00;99.90;;;;;;5074361;28;20669;-67
2023/03/21 00:47:50;;;;;;;1999.90;999.90;;;11.00;99.90;;;;;;5074288;28;20176;-67
2023/03/21 00:50:17;;;;;;;1999.90;999.90;;;11.10;99.90;;;;;;5074433;28;20178;-67
2023/03/21 00:52:42;;;;;;;1999.90;999.90;;;11.00;99.90;;;;;;5074285;28;20175;-67
2023/03/21 00:55:13;;;;;;;1999.90;999.90;;;11.10;99.90;;;;;;5074206;28;20859;-67
2023/03/21 00:57:39;;;;;;;1999.90;999.90;;;11.10;99.90;;;;;;5074189;28;20187;-67
2023/03/21 01:00:08;;;;;;;1999.90;999.90;;;11.10;99.90;;;;;;5073392;28;21027;-67
2023/03/21 01:02:34;;;;;;;1999.90;999.90;;;11.10;99.90;;;;;;5074056;28;20405;-67
2023/03/21 01:05:00;;;;;;;1999.90;999.90;;;11.10;99.90;;;;;;5073994;28;20503;-67
2023/03/21 01:07:25;;;;;;;1999.90;999.90;;;11.10;99.90;;;;;;5073944;28;20550;-68
2023/03/21 01:09:51;;;;;;;1999.90;999.90;;;11.10;99.90;;;;;;5074052;28;20178;-67
2023/03/21 01:12:16;;;;;;;1999.90;999.90;;;11.20;99.90;;;;;;5073735;28;20651;-67
2023/03/21 01:14:42;;;;;;;1999.90;999.90;;;11.20;99.90;;;;;;5073874;28;20191;-67
2023/03/21 01:17:08;;;;;;;1999.90;999.90;;;11.20;99.90;;;;;;5073660;28;20203;-67
2023/03/21 01:19:33;;;;;;;1999.90;999.90;;;11.20;99.90;;;;;;5073760;28;20171;-67
2023/03/21 01:21:59;;;;;;;1999.90;999.90;;;11.30;99.90;;;;;;5073889;28;20171;-67
2023/03/21 01:24:25;;;;;;;1999.90;999.90;;;11.40;99.90;;;;;;5073460;28;20551;-67
2023/03/21 01:26:50;;;;;;;1999.90;999.90;;;11.30;99.90;;;;;;5073445;28;20195;-67
2023/03/21 01:29:16;;;;;;;1999.90;999.90;;;11.30;99.90;;;;;;5073613;28;20176;-67
2023/03/21 01:31:41;;;;;;;1999.90;999.90;;;11.30;99.90;;;;;;5073681;28;20199;-67
2023/03/21 01:34:07;;;;;;;1999.90;999.90;;;11.40;99.90;;;;;;5073290;28;20175;-67
2023/03/21 01:36:32;;;;;;;1999.90;999.90;;;11.30;99.90;;;;;;5073338;28;20550;-67
2023/03/21 01:38:58;;;;;;;1999.90;999.90;;;11.20;99.90;;;;;;5073388;28;20661;-67
2023/03/21 01:41:33;;;;;;;1999.90;999.90;;;11.20;99.90;;;;;;5073254;28;20198;-67
2023/03/21 01:43:59;;;;;;;1999.90;999.90;;;11.20;99.90;;;;;;5073347;28;20694;-67
2023/03/21 01:46:34;;;;;;;1999.90;999.90;;;11.20;99.90;;;;;;5073008;28;20425;-67
2023/03/21 01:49:12;;;;;;;1999.90;999.90;;;11.30;99.90;;;;;;5073259;28;20179;-67
2023/03/21 01:51:52;;;;;;;1999.90;999.90;;;11.40;99.90;;;;;;5073189;28;20823;-67
2023/03/21 01:54:24;;;;;;;1999.90;999.90;;;11.30;99.90;;;;;;5073044;28;20416;-67
2023/03/21 01:56:53;;;;;;;1999.90;999.90;;;11.30;99.90;;;;;;5073065;28;20779;-67
2023/03/21 01:59:30;;;;;;;1999.90;999.90;;;11.30;99.90;;;;;;5072977;28;20393;-67
2023/03/21 02:02:00;;;;;;;1999.90;999.90;;;11.30;99.90;;;;;;5073027;28;20504;-67
2023/03/21 02:04:26;;;;;;;1999.90;999.90;;;11.30;99.90;;;;;;5072560;28;20461;-67
2023/03/21 02:07:01;;;;;;;1999.90;999.90;;;11.20;99.90;;;;;;5072732;28;20417;-67
2023/03/21 02:09:32;;;;;;;1999.90;999.90;;;11.20;99.90;;;;;;5073073;28;20404;-68
2023/03/21 02:11:58;;;;;;;1999.90;999.90;;;11.30;99.90;;;;;;5072787;28;20433;-67
2023/03/21 02:14:24;;;;;;;1999.90;999.90;;;11.30;99.90;;;;;;5072611;28;20910;-67
2023/03/21 02:16:55;;;;;;;1999.90;999.90;;;11.30;99.90;;;;;;5072392;28;20455;-67
2023/03/21 02:19:45;;;;;;;1999.90;999.90;;;11.30;99.90;;;;;;5072665;28;20246;-67
2023/03/21 02:22:10;;;;;;;1999.90;999.90;;;11.20;99.90;;;;;;5072424;28;20909;-67
2023/03/21 02:24:59;;;;;;;1999.90;999.90;;;11.20;99.90;;;;;;5072478;28;20460;-67
2023/03/21 02:27:27;;;;;;;1999.90;999.90;;;11.20;99.90;;;;;;5066773;28;20258;-67
2023/03/21 02:30:30;;;;;;;1999.90;999.90;;;11.20;99.90;;;;;;5072412;28;20413;-67
2023/03/21 02:33:46;;;;;;;1999.90;999.90;;;11.20;99.90;;;;;;5072282;28;20401;-67
2023/03/21 02:36:21;;;;;;;1999.90;999.90;;;11.10;99.90;;;;;;5029889;28;20621;-67
2023/03/21 02:38:59;;;;;;;1999.90;999.90;;;11.00;99.90;;;;;;5030074;28;20800;-67
2023/03/21 02:41:53;;;;;;;1999.90;999.90;;;11.10;99.90;;;;;;5055758;28;20502;-67
2023/03/21 02:44:45;;;;;;;1999.90;999.90;;;11.00;99.90;;;;;;5071527;28;20465;-67
2023/03/21 02:47:53;;;;;;;1999.90;999.90;;;11.00;99.90;;;;;;5066228;28;20855;-67
2023/03/21 02:50:31;;;;;;;1999.90;999.90;;;11.00;99.90;;;;;;5071657;28;20441;-67
2023/03/21 02:52:58;;;;;;;1999.90;999.90;;;11.10;99.90;;;;;;5071877;28;20776;-67
2023/03/21 02:55:26;;;;;;;1999.90;999.90;;;11.00;99.90;;;;;;5072143;28;20426;-67
2023/03/21 02:57:54;;;;;;;1999.90;999.90;;;10.90;99.90;;;;;;5072052;28;20784;-67
2023/03/21 03:00:26;;;;;;;1999.90;999.90;;;10.90;99.90;;;;;;5071981;28;20409;-67
2023/03/21 03:02:53;;;;;;;1999.90;999.90;;;10.80;99.90;;;;;;5071862;28;20884;-67
2023/03/21 03:05:25;;;;;;;1999.90;999.90;;;10.80;99.90;;;;;;5071740;28;20973;-67
2023/03/21 03:08:13;;;;;;;1999.90;999.90;;;10.80;99.90;;;;;;5071748;28;20416;-67
2023/03/21 03:11:06;;;;;;;1999.90;999.90;;;10.70;99.90;;;;;;5071965;28;20397;-67
2023/03/21 03:14:01;;;;;;;1999.90;999.90;;;10.70;99.90;;;;;;5071755;28;20402;-67
2023/03/21 03:16:45;;;;;;;1999.90;999.90;;;10.70;99.90;;;;;;5071965;28;21018;-67
2023/03/21 03:19:39;;;;;;;1999.90;999.90;;;10.70;99.90;;;;;;5071890;28;20419;-67
2023/03/21 03:22:16;;;;;;;1999.90;999.90;;;10.60;99.90;;;;;;5055570;28;20420;-67
2023/03/21 03:24:50;;;;;;;1999.90;999.90;;;10.60;99.90;;;;;;5075303;28;20551;-67
2023/03/21 03:27:22;;;;;;;1999.90;999.90;;;10.70;99.90;;;;;;5075899;28;20419;-67
2023/03/21 03:29:49;;;;;;;1999.90;999.90;;;10.80;99.90;;;;;;5075863;28;20974;-67
2023/03/21 03:32:17;;;;;;;1999.90;999.90;;;10.80;99.90;;;;;;5075697;28;20410;-67
2023/03/21 03:34:48;;;;;;;1999.90;999.90;;;10.70;99.90;;;;;;5075788;28;20888;-67
2023/03/21 03:37:20;;;;;;;1999.90;999.90;;;10.70;99.90;;;;;;5075655;28;20528;-67
2023/03/21 03:40:09;;;;;;;1999.90;999.90;;;10.70;99.90;;;;;;5075709;28;20397;-67
2023/03/21 03:42:47;;;;;;;1999.90;999.90;;;10.90;99.90;;;;;;5075000;28;20432;-67
2023/03/21 03:45:13;;;;;;;1999.90;999.90;;;10.70;99.90;;;;;;5075542;28;20483;-67
2023/03/21 03:47:45;;;;;;;1999.90;999.90;;;10.70;99.90;;;;;;5075477;28;20429;-67
2023/03/21 03:50:31;;;;;;;1999.90;999.90;;;10.80;99.90;;;;;;5075520;28;20429;-67
2023/03/21 03:53:06;;;;;;;1999.90;999.90;;;10.70;99.90;;;;;;5075265;28;20433;-67
2023/03/21 03:55:33;;;;;;;1999.90;999.90;;;10.60;99.90;;;;;;5075317;28;20799;-67
2023/03/21 03:58:00;;;;;;;1999.90;999.90;;;10.80;99.90;;;;;;5075333;28;20971;-67
2023/03/21 04:00:26;;;;;;;1999.90;999.90;;;10.70;99.90;;;;;;5075329;28;20941;-67
2023/03/21 04:02:52;;;;;;;1999.90;999.90;;;10.70;99.90;;;;;;5075070;28;20818;-67
2023/03/21 04:05:20;;;;;;;1999.90;999.90;;;10.70;99.90;;;;;;5075065;28;20456;-67
2023/03/21 04:07:49;;;;;;;1999.90;999.90;;;10.70;99.90;;;;;;5075249;28;20810;-67
2023/03/21 04:10:15;;;;;;;1999.90;999.90;;;10.80;99.90;;;;;;5075152;28;20960;-67
2023/03/21 04:12:42;;;;;;;1999.90;999.90;;;10.70;99.90;;;;;;5074840;28;20917;-67
2023/03/21 04:15:08;;;;;;;1999.90;999.90;;;10.70;99.90;;;;;;5075008;28;20409;-67
2023/03/21 04:17:34;;;;;;;1999.90;999.90;;;10.70;99.90;;;;;;5074914;28;20599;-67
2023/03/21 04:19:59;;;;;;;1999.90;999.90;;;10.70;99.90;;;;;;5074879;28;20974;-67
2023/03/21 04:22:25;;;;;;;1999.90;999.90;;;10.70;99.90;;;;;;5074774;28;20167;-67
2023/03/21 04:24:52;;;;;;;1999.90;999.90;;;10.70;99.90;;;;;;5074748;28;20206;-68
2023/03/21 04:27:18;;;;;;;1999.90;999.90;;;10.60;99.90;;;;;;5074544;28;20433;-67
2023/03/21 04:29:43;;;;;;;1999.90;999.90;;;10.60;99.90;;;;;;5074781;28;20409;-67
2023/03/21 04:32:15;;;;;;;1999.90;999.90;;;10.60;99.90;;;;;;5074533;28;20408;-68
2023/03/21 04:34:42;;;;;;;1999.90;999.90;;;10.60;99.90;;;;;;5074590;28;20203;-67
2023/03/21 04:37:10;;;;;;;1999.90;999.90;;;10.60;99.90;;;;;;5074666;28;20421;-67
2023/03/21 04:39:37;;;;;;;1999.90;999.90;;;10.60;99.90;;;;;;5074639;28;20402;-67
2023/03/21 04:42:03;;;;;;;1999.90;999.90;;;10.60;99.90;;;;;;5074447;28;20823;-67
2023/03/21 04:44:29;;;;;;;1999.90;999.90;;;10.60;99.90;;;;;;5074353;28;20499;-67
2023/03/21 04:46:55;;;;;;;1999.90;999.90;;;10.60;99.90;;;;;;5074231;28;20824;-67
2023/03/21 04:49:21;;;;;;;1999.90;999.90;;;10.60;99.90;;;;;;5074474;28;20767;-67
2023/03/21 04:51:46;;;;;;;1999.90;999.90;;;10.50;99.90;;;;;;5074357;28;20532;-67
2023/03/21 04:54:12;;;;;;;1999.90;999.90;;;10.50;99.90;;;;;;5074174;28;20401;-67
2023/03/21 04:56:38;;;;;;;1999.90;999.90;;;10.50;99.90;;;;;;5074137;28;20278;-67
2023/03/21 04:59:09;;;;;;;1999.90;999.90;;;10.50;99.90;;;;;;5074213;28;20503;-67
2023/03/21 05:01:35;;;;;;;1999.90;999.90;;;10.50;99.90;;;;;;5074233;28;20186;-67
2023/03/21 05:04:02;;;;;;;1999.90;999.90;;;10.60;99.90;;;;;;5073852;28;20453;-66
2023/03/21 05:06:29;;;;;;;1999.90;999.90;;;10.70;99.90;;;;;;5073948;28;20269;-67
2023/03/21 05:09:00;;;;;;;1999.90;999.90;;;10.70;99.90;;;;;;5074110;28;20429;-67
2023/03/21 05:11:26;;;;;;;1999.90;999.90;;;10.70;99.90;;;;;;5074064;28;20484;-67
2023/03/21 05:13:52;;;;;;;1999.90;999.90;;;10.70;99.90;;;;;;5073755;28;20409;-67
2023/03/21 05:16:18;;;;;;;1999.90;999.90;;;10.60;99.90;;;;;;5073749;28;20456;-67
2023/03/21 05:18:43;;;;;;;1999.90;999.90;;;10.60;99.90;;;;;;5073879;28;20220;-67
2023/03/21 05:21:09;;;;;;;1999.90;999.90;;;10.60;99.90;;;;;;5073817;28;20187;-67
2023/03/21 05:23:38;;;;;;;1999.90;999.90;;;10.70;99.90;;;;;;5073641;28;20203;-67
2023/03/21 05:26:06;;;;;;;1999.90;999.90;;;10.70;99.90;;;;;;5073535;28;20528;-68
2023/03/21 05:28:35;;;;;;;1999.90;999.90;;;10.60;99.90;;;;;;5073579;28;20455;-67
2023/03/21 05:31:02;;;;;;;1999.90;999.90;;;10.70;99.90;;;;;;5073655;28;20409;-68
2023/03/21 05:33:28;;;;;;;1999.90;999.90;;;10.70;99.90;;;;;;5073384;28;20402;-68
2023/03/21 05:35:53;;;;;;;1999.90;999.90;;;10.70;99.90;;;;;;5073283;28;20478;-67
2023/03/21 05:38:19;;;;;;;1999.90;999.90;;;10.50;99.90;;;;;;5073582;28;20171;-68
2023/03/21 05:40:49;;;;;;;1999.90;999.90;;;10.50;99.90;;;;;;5073274;28;20186;-67
2023/03/21 05:43:14;;;;;;;1999.90;999.90;;;10.40;99.90;;;;;;5073069;28;20651;-67
2023/03/21 05:45:40;;;;;;;1999.90;999.90;;;10.40;99.90;;;;;;5072732;28;20513;-67
2023/03/21 05:48:06;;;;;;;1999.90;999.90;;;10.30;99.90;;;;;;5073209;28;20227;-68
2023/03/21 05:50:31;;;;;;;1999.90;999.90;;;10.20;99.90;;;;;;5073706;28;20165;-67
2023/03/21 05:52:57;;;;;;;1999.90;999.90;;;10.20;99.90;;;;;;5073012;28;20175;-67
2023/03/21 05:55:22;;;;;;;1999.90;999.90;;;10.20;99.90;;;;;;5073058;28;20194;-67
2023/03/21 05:57:48;;;;;;;1999.90;999.90;;;10.20;99.90;;;;;;5072990;28;20179;-67
2023/03/21 06:00:15;;;;;;;1999.90;999.90;;;10.30;99.90;;;;;;5072998;28;20175;-67
2023/03/21 06:02:40;;;;;;;1999.90;999.90;;;10.30;99.90;;;;;;5072848;28;20578;-67
2023/03/21 06:05:06;;;;;;;1999.90;999.90;;;10.20;99.90;;;;;;5072778;28;20452;-67
2023/03/21 06:07:33;;;;;;;1999.90;999.90;;;10.40;99.90;;;;;;5072968;28;20174;-67
2023/03/21 06:09:58;;;;;;;1999.90;999.90;;;10.60;99.90;;;;;;5072775;28;20435;-67
2023/03/21 06:12:24;;;;;;;1999.90;999.90;;;10.50;99.90;;;;;;5072567;28;20440;-67
2023/03/21 06:14:49;;;;;;;1999.90;999.90;;;10.50;99.90;;;;;;5072803;28;20605;-67
2023/03/21 06:17:15;;;;;;;1999.90;999.90;;;10.50;99.90;;;;;;5072472;28;20225;-68
2023/03/21 06:19:41;;;;;;;1999.90;999.90;;;10.60;99.90;;;;;;5072816;28;20670;-67
2023/03/21 06:22:06;;;;;;;1999.90;999.90;;;10.60;99.90;;;;;;5072382;28;20689;-67
2023/03/21 06:24:32;;;;;;;1999.90;999.90;;;10.50;99.90;;;;;;5072444;28;20199;-67
2023/03/21 06:26:57;;;;;;;1999.90;999.90;;;10.50;99.90;;;;;;5072279;28;20191;-67
2023/03/21 06:29:23;;;;;;;1999.90;999.90;;;10.50;99.90;;;;;;5072459;28;20167;-67
2023/03/21 06:31:49;;;;;;;1999.90;999.90;;;10.50;99.90;;;;;;5072714;28;20172;-67
2023/03/21 06:34:15;;;;;;;1999.90;999.90;;;10.40;99.90;;;;;;5072118;28;20401;-67
2023/03/21 06:36:43;;;;;;;1999.90;999.90;;;10.50;99.90;;;;;;5072228;28;20342;-68
2023/03/21 06:39:09;;;;;;;1999.90;999.90;;;10.60;99.90;;;;;;5072284;28;20226;-67
2023/03/21 06:41:35;;;;;;;1999.90;999.90;;;10.60;99.90;;;;;;5072005;28;20519;-67
2023/03/21 06:44:01;;;;;;;1999.90;999.90;;;10.60;99.90;;;;;;5072166;28;20467;-67
2023/03/21 06:46:28;;;;;;;1999.90;999.90;;;10.70;99.90;;;;;;5072063;28;20193;-67
2023/03/21 06:48:54;;;;;;;1999.90;999.90;;;10.60;99.90;;;;;;5072216;28;20971;-67
2023/03/21 06:51:20;;;;;;;1999.90;999.90;;;10.60;99.90;;;;;;5072174;28;20437;-67
2023/03/21 06:53:45;;;;;;;1999.90;999.90;;;10.60;99.90;;;;;;5071948;28;20550;-67
2023/03/21 06:56:12;;;;;;;1999.90;999.90;;;10.60;99.90;;;;;;5071921;28;20786;-67
2023/03/21 06:58:39;;;;;;;1999.90;999.90;;;10.60;99.90;;;;;;5071444;28;20174;-67
2023/03/21 07:01:05;;;;;;;1999.90;999.90;;;10.80;99.90;;;;;;5072161;28;20443;-67
2023/03/21 07:03:30;;;;;;;1999.90;999.90;;;10.70;99.90;;;;;;5071890;28;20465;-67
2023/03/21 07:05:56;;;;;;;1999.90;999.90;;;10.60;99.90;;;;;;5071886;28;20425;-67
2023/03/21 07:08:22;;;;;;;1999.90;999.90;;;10.60;99.90;;;;;;5072119;28;20170;-67
2023/03/21 07:10:48;;;;;;;1999.90;999.90;;;10.60;99.90;;;;;;5071966;28;20435;-67
2023/03/21 07:13:14;;;;;;;1999.90;999.90;;;10.70;99.90;;;;;;5071730;28;20568;-67
2023/03/21 07:15:40;;;;;;;1999.90;999.90;;;10.80;99.90;;;;;;5071947;28;20252;-67
2023/03/21 07:18:08;;;;;;;1999.90;999.90;;;10.80;99.90;;;;;;5071881;28;20400;-66
2023/03/21 07:20:34;;;;;;;1999.90;999.90;;;10.80;99.90;;;;;;5071908;28;20420;-67
2023/03/21 07:23:00;;;;;;;1999.90;999.90;;;10.90;99.90;;;;;;5071627;28;20416;-67
2023/03/21 07:25:26;;;;;;;1999.90;999.90;;;11.00;99.90;;;;;;5071666;28;20453;-67
2023/03/21 07:27:52;;;;;;;1999.90;999.90;;;11.00;99.90;;;;;;5071714;28;20190;-67
2023/03/21 07:30:17;;;;;;;1999.90;999.90;;;11.00;99.90;;;;;;5071726;28;20412;-67
2023/03/21 07:32:44;;;;;;;1999.90;999.90;;;10.90;99.90;;;;;;5071723;28;20167;-67
2023/03/21 07:35:12;;;;;;;1999.90;999.90;;;10.60;99.90;;;;;;5071681;28;20166;-66
2023/03/21 07:37:39;;;;;;;1999.90;999.90;;;10.70;99.90;;;;;;5071562;28;20448;-66
2023/03/21 07:40:12;;;;;;;1999.90;999.90;;;10.70;99.90;;;;;;5071603;28;21243;-66
2023/03/21 07:42:39;;;;;;;1999.90;999.90;;;10.60;99.90;;;;;;5071738;28;20417;-66
2023/03/21 07:45:06;;;;;;;1999.90;999.90;;;10.50;99.90;;;;;;5071706;28;20480;-66
2023/03/21 07:47:33;;;;;;;1999.90;999.90;;;10.50;99.90;;;;;;5071650;28;20397;-66
2023/03/21 07:49:58;;;;;;;1999.90;999.90;;;10.50;99.90;;;;;;5071752;28;20752;-66
2023/03/21 07:52:24;;;;;;;1999.90;999.90;;;10.70;99.90;;;;;;5071391;28;20409;-66
2023/03/21 07:54:50;;;;;;;1999.90;999.90;;;10.50;99.90;;;;;;5071580;28;20193;-66
2023/03/21 07:57:16;;;;;;;1999.90;999.90;;;10.50;99.90;;;;;;5071410;28;20187;-66
2023/03/21 07:59:42;;;;;;;1999.90;999.90;;;10.50;99.90;;;;;;5071636;28;20183;-66
2023/03/21 08:02:13;;;;;;;1999.90;999.90;;;10.50;99.90;;;;;;5071314;28;20916;-66
2023/03/21 08:04:39;;;;;;;1999.90;999.90;;;10.50;99.90;;;;;;5071402;28;20215;-66
2023/03/21 08:07:05;;;;;;;1999.90;999.90;;;10.50;99.90;;;;;;5071265;28;21031;-66
2023/03/21 08:09:30;;;;;;;1999.90;999.90;;;10.40;99.90;;;;;;5072825;28;20159;-66
2023/03/21 08:11:56;;;;;;;1999.90;999.90;;;10.50;99.90;;;;;;5074884;28;20250;-66
2023/03/21 08:14:21;;;;;;;1999.90;999.90;;;10.60;99.90;;;;;;5074959;28;20174;-66
2023/03/21 08:16:47;;;;;;;1999.90;999.90;;;10.60;99.90;;;;;;5075029;28;20186;-66
2023/03/21 08:19:12;;;;;;;1999.90;999.90;;;10.60;99.90;;;;;;5074981;28;20707;-66
2023/03/21 08:21:38;;;;;;;1999.90;999.90;;;10.60;99.90;;;;;;5074842;28;20545;-67
2023/03/21 08:24:05;;;;;;;1999.90;999.90;;;10.70;99.90;;;;;;5074748;28;20644;-66
2023/03/21 08:26:32;;;;;;;1999.90;999.90;;;10.60;99.90;;;;;;5074863;28;20188;-65
2023/03/21 08:28:57;;;;;;;1999.90;999.90;;;10.60;99.90;;;;;;5072672;28;20405;-66
2023/03/21 08:31:23;;;;;;;1999.90;999.90;;;10.60;99.90;;;;;;5074402;28;20413;-66
2023/03/21 08:33:53;;;;;;;1999.90;999.90;;;10.60;99.90;;;;;;5074437;28;20174;-66
2023/03/21 08:36:21;;;;;;;1999.90;999.90;;;10.50;99.90;;;;;;5074215;28;20664;-66
2023/03/21 08:38:47;;;;;;;1999.90;999.90;;;10.60;99.90;;;;;;5074468;28;20404;-66
2023/03/21 08:41:13;;;;;;;1999.90;999.90;;;10.60;99.90;;;;;;5074436;28;20867;-66
2023/03/21 08:43:39;;;;;;;1999.90;999.90;;;10.70;99.90;;;;;;5073794;28;20449;-66
2023/03/21 08:46:05;;;;;;;1999.90;999.90;;;10.70;99.90;;;;;;5074246;28;20421;-67
2023/03/21 08:48:31;;;;;;;1999.90;999.90;;;10.70;99.90;;;;;;5074164;28;20214;-66
2023/03/21 08:50:59;;;;;;;1999.90;999.90;;;10.70;99.90;;;;;;5073832;28;20484;-66
2023/03/21 08:53:25;;;;;;;1999.90;999.90;;;10.80;99.90;;;;;;5073816;28;20258;-67
2023/03/21 08:55:50;;;;;;;1999.90;999.90;;;10.80;99.90;;;;;;5073952;28;20519;-66
2023/03/21 08:58:16;;;;;;;1999.90;999.90;;;10.90;99.90;;;;;;5073950;28;20168;-67
2023/03/21 09:00:42;;;;;;;1999.90;999.90;;;10.90;99.90;;;;;;5073747;28;20598;-66
2023/03/21 09:03:07;;;;;;;1999.90;999.90;;;11.00;99.90;;;;;;5073680;28;20428;-66
2023/03/21 09:05:33;;;;;;;1999.90;999.90;;;11.10;99.90;;;;;;5073536;28;20207;-67
2023/03/21 09:08:00;;;;;;;1999.90;999.90;;;11.10;99.90;;;;;;5073449;28;20181;-66
2023/03/21 09:10:26;;;;;;;1999.90;999.90;;;11.20;99.90;;;;;;5073935;28;20198;-66
2023/03/21 09:12:53;;;;;;;1999.90;999.90;;;11.20;99.90;;;;;;5073679;28;20447;-66
2023/03/21 09:15:23;;;;;;;1999.90;999.90;;;11.30;99.90;;;;;;5073296;28;20503;-66
2023/03/21 09:17:51;;;;;;;1999.90;999.90;;;11.30;99.90;;;;;;5073427;28;20501;-66
2023/03/21 09:20:19;;;;;;;1999.90;999.90;;;11.30;99.90;;;;;;5073282;28;20500;-66
2023/03/21 09:22:50;;;;;;;1999.90;999.90;;;11.20;99.90;;;;;;5072710;28;20416;-66
2023/03/21 09:25:17;;;;;;;1999.90;999.90;;;11.10;99.90;;;;;;5073545;28;20457;-66
2023/03/21 09:27:44;;;;;;;1999.90;999.90;;;11.10;99.90;;;;;;5073375;28;20404;-66
2023/03/21 09:30:12;;;;;;;1999.90;999.90;;;11.10;99.90;;;;;;5073086;28;20398;-66
2023/03/21 09:32:39;;;;;;;1999.90;999.90;;;11.10;99.90;;;;;;5073510;28;20930;-67
2023/03/21 09:35:05;;;;;;;1999.90;999.90;;;11.00;99.90;;;;;;5073303;28;20929;-66
2023/03/21 09:37:32;;;;;;;1999.90;999.90;;;11.10;99.90;;;;;;5072922;28;20424;-66
2023/03/21 09:39:58;;;;;;;1999.90;999.90;;;11.10;99.90;;;;;;5073171;28;20437;-66
2023/03/21 09:42:51;;;;;;;1999.90;999.90;;;11.20;99.90;;;;;;5072954;28;20471;-66
2023/03/21 09:45:34;;;;;;;1999.90;999.90;;;11.20;99.90;;;;;;5072936;28;20457;-66
2023/03/21 09:48:01;;;;;;;1999.90;999.90;;;11.30;99.90;;;;;;5073039;28;20401;-67
2023/03/21 09:50:36;;;;;;;1999.90;999.90;;;11.40;99.90;;;;;;5072431;28;20414;-67
2023/03/21 09:53:04;;;;;;;1999.90;999.90;;;11.50;99.90;;;;;;5072733;28;20397;-67
2023/03/21 09:55:33;;;;;;;1999.90;999.90;;;11.60;99.90;;;;;;5072675;28;20453;-67
2023/03/21 09:58:05;;;;;;;1999.90;999.90;;;11.70;99.90;;;;;;5069706;28;20519;-67
2023/03/21 10:00:42;;;;;;;1999.90;999.90;;;11.80;99.90;;;;;;5068271;28;21395;-67
2023/03/21 10:03:29;;;;;;;1999.90;999.90;;;11.90;99.90;;;;;;5065097;28;20493;-65
2023/03/21 10:05:59;;;;;;;1999.90;999.90;;;12.00;99.90;;;;;;5069020;28;20446;-64
2023/03/21 10:08:31;;;;;;;1999.90;999.90;;;12.00;99.90;;;;;;5065930;28;20402;-65
2023/03/21 10:11:06;;;;;;;1999.90;999.90;;;12.10;99.90;;;;;;5070788;28;20414;-64
2023/03/21 10:13:34;;;;;;;1999.90;999.90;;;12.20;99.90;;;;;;5069780;28;20927;-66
2023/03/21 10:16:12;;;;;;;1999.90;999.90;;;12.20;99.90;;;;;;5071927;28;20433;-66
2023/03/21 10:18:40;;;;;;;1999.90;999.90;;;12.20;99.90;;;;;;5072275;28;20407;-65
2023/03/21 10:21:06;;;;;;;1999.90;999.90;;;12.30;99.90;;;;;;5071319;28;20485;-65
2023/03/21 10:23:32;;;;;;;1999.90;999.90;;;12.40;99.90;;;;;;5067013;28;20484;-65
2023/03/21 10:26:00;;;;;;;1999.90;999.90;;;12.50;99.90;;;;;;5071874;28;20440;-65
2023/03/21 10:28:31;;;;;;;1999.90;999.90;;;12.60;99.90;;;;;;5071763;28;20644;-65
2023/03/21 10:31:03;;;;;;;1999.90;999.90;;;12.70;99.90;;;;;;5071748;28;20869;-65
2023/03/21 10:33:36;;;;;;;1999.90;999.90;;;12.70;99.90;;;;;;5071887;28;20403;-65
2023/03/21 10:36:07;;;;;;;1999.90;999.90;;;12.80;99.90;;;;;;5071007;28;20854;-65
2023/03/21 10:38:33;;;;;;;1999.90;999.90;;;12.80;99.90;;;;;;5068352;28;20885;-66
2023/03/21 10:40:59;;;;;;;1999.90;999.90;;;12.80;99.90;;;;;;5070591;28;20440;-66
2023/03/21 10:43:24;;;;;;;1999.90;999.90;;;12.80;99.90;;;;;;5071095;28;20412;-65
2023/03/21 10:45:51;;;;;;;1999.90;999.90;;;12.60;99.90;;;;;;5071738;28;20184;-66
2023/03/21 10:48:18;;;;;;;1999.90;999.90;;;12.50;99.90;;;;;;5071767;28;20218;-66
2023/03/21 10:50:48;;;;;;;1999.90;999.90;;;12.50;99.90;;;;;;5071288;28;20417;-65
2023/03/21 10:53:19;;;;;;;1999.90;999.90;;;12.40;99.90;;;;;;5071726;28;20466;-66
2023/03/21 10:55:55;;;;;;;1999.90;999.90;;;12.20;99.90;;;;;;5071620;28;20426;-65
2023/03/21 10:58:28;;;;;;;1999.90;999.90;;;12.20;99.90;;;;;;5071311;28;20912;-65
2023/03/21 11:01:01;;;;;;;1999.90;999.90;;;12.10;99.90;;;;;;5072073;28;20389;-65
2023/03/21 11:03:31;;;;;;;1999.90;999.90;;;12.10;99.90;;;;;;5071757;28;20437;-66
2023/03/21 11:06:11;;;;;;;1999.90;999.90;;;12.10;99.90;;;;;;5071124;28;20448;-66
2023/03/21 11:08:38;;;;;;;1999.90;999.90;;;12.10;99.90;;;;;;5071660;28;20395;-65
2023/03/21 11:11:07;;;;;;;1999.90;999.90;;;12.20;99.90;;;;;;5071416;28;20471;-65
2023/03/21 11:13:41;;;;;;;1999.90;999.90;;;12.30;99.90;;;;;;5067179;28;20419;-66
2023/03/21 11:16:21;;;;;;;1999.90;999.90;;;12.20;99.90;;;;;;5070937;28;20463;-65
2023/03/21 11:18:55;;;;;;;1999.90;999.90;;;12.20;99.90;;;;;;5071659;28;20764;-66
2023/03/21 11:21:26;;;;;;;1999.90;999.90;;;12.10;99.90;;;;;;5071538;28;20410;-65
2023/03/21 11:23:54;;;;;;;1999.90;999.90;;;12.00;99.90;;;;;;5071842;28;20449;-65
2023/03/21 11:26:26;;;;;;;1999.90;999.90;;;11.90;99.90;;;;;;5070649;28;20844;-66
2023/03/21 11:28:53;;;;;;;1999.90;999.90;;;11.90;99.90;;;;;;5071210;28;20752;-66
2023/03/21 11:31:20;;;;;;;1999.90;999.90;;;11.90;99.90;;;;;;5070203;28;20409;-67
2023/03/21 11:33:55;;;;;;;1999.90;999.90;;;11.90;99.90;;;;;;5070584;28;20541;-66
2023/03/21 11:36:21;;;;;;;1999.90;999.90;;;11.90;99.90;;;;;;5071471;28;20440;-66
2023/03/21 11:38:58;;;;;;;1999.90;999.90;;;11.90;99.90;;;;;;5071412;28;20410;-66
2023/03/21 11:41:28;;;;;;;1999.90;999.90;;;11.80;99.90;;;;;;5071012;28;20186;-66
2023/03/21 11:43:54;;;;;;;1999.90;999.90;;;11.80;99.90;;;;;;5071572;28;20931;-66
2023/03/21 11:46:25;;;;;;;1999.90;999.90;;;11.70;99.90;;;;;;5075376;28;20419;-66
2023/03/21 11:48:51;;;;;;;1999.90;999.90;;;11.80;99.90;;;;;;5074878;28;20391;-66
2023/03/21 11:51:47;;;;;;;1999.90;999.90;;;11.80;99.90;;;;;;5075002;28;20401;-65
2023/03/21 11:54:42;;;;;;;1999.90;999.90;;;11.70;99.90;;;;;;5075529;28;20441;-65
2023/03/21 11:57:23;;;;;;;1999.90;999.90;;;11.70;99.90;;;;;;5075719;28;20453;-69
2023/03/21 12:00:09;;;;;;;1999.90;999.90;;;11.70;99.90;;;;;;5077002;28;20421;-70
2023/03/21 12:03:25;;;;;;;1999.90;999.90;;;11.70;99.90;;;;;;5074020;28;20426;-66
2023/03/21 12:05:54;;;;;;;1999.90;999.90;;;11.70;99.90;;;;;;5054829;28;20850;-66
2023/03/21 12:08:49;;;;;;;1999.90;999.90;;;11.70;99.90;;;;;;5074693;28;20434;-65
2023/03/21 12:11:24;;;;;;;1999.90;999.90;;;11.70;99.90;;;;;;5054880;28;20391;-66